Time;durP1;ratioP1;P1;durP2;ratioP2;P2;SDS_P1;SDS_P2;PMS_P1;PMS_P2;Temp;Humidity;BMP_temperature;BMP_pressure;BME280_temperature;BME280_humidity;BME280_pressure;Samples;Min_cycle;Max_cycle;Signal;HPM_P1;HPM_P2
2024/03/26 00:00:11;;;;;;;0.80;0.30;;;;;;;4.29;100.00;99233.67;105923;1257;62098;-57
2024/03/26 00:02:39;;;;;;;0.30;0.30;;;;;;;4.30;100.00;99234.90;106236;1254;60572;-58
2024/03/26 00:05:08;;;;;;;0.30;0.20;;;;;;;4.33;100.00;99234.12;105961;1256;73401;-54
2024/03/26 00:07:35;;;;;;;0.70;0.20;;;;;;;4.37;100.00;99234.32;105884;1259;65942;-57
2024/03/26 00:10:03;;;;;;;0.40;0.20;;;;;;;4.40;100.00;99232.27;105788;1261;73087;-55
2024/03/26 00:12:31;;;;;;;0.50;0.30;;;;;;;4.43;100.00;99224.35;105875;1260;62262;-54
2024/03/26 00:14:58;;;;;;;0.40;0.20;;;;;;;4.44;100.00;99224.33;105845;1259;62161;-57
2024/03/26 00:17:25;;;;;;;1.70;0.20;;;;;;;4.42;100.00;99217.46;105837;1259;75535;-53
2024/03/26 00:19:52;;;;;;;0.50;0.20;;;;;;;4.38;100.00;99219.36;105857;1254;65820;-55
2024/03/26 00:22:19;;;;;;;0.30;0.20;;;;;;;4.35;100.00;99224.27;105856;1254;72710;-54
2024/03/26 00:24:46;;;;;;;0.50;0.20;;;;;;;4.33;100.00;99224.35;105822;1261;62239;-55
2024/03/26 00:27:14;;;;;;;0.30;0.20;;;;;;;4.33;100.00;99227.70;105834;1253;61176;-55
2024/03/26 00:29:41;;;;;;;1.70;0.20;;;;;;;4.34;100.00;99223.96;105865;1258;76597;-55
2024/03/26 00:32:08;;;;;;;0.50;0.20;;;;;;;4.35;100.00;99226.73;105848;1266;66901;-56
2024/03/26 00:34:35;;;;;;;0.70;0.20;;;;;;;4.36;100.00;99229.04;105850;1254;72760;-53
2024/03/26 00:37:02;;;;;;;0.40;0.20;;;;;;;4.34;100.00;99229.96;105871;1261;61199;-55
2024/03/26 00:39:29;;;;;;;0.30;0.20;;;;;;;4.34;100.00;99231.39;105853;1260;63403;-55
2024/03/26 00:41:57;;;;;;;0.40;0.20;;;;;;;4.33;100.00;99230.37;105823;1271;73446;-54
2024/03/26 00:44:24;;;;;;;0.80;0.40;;;;;;;4.33;100.00;99230.02;105915;1254;65904;-54
2024/03/26 00:46:51;;;;;;;1.00;0.20;;;;;;;4.33;100.00;99229.67;105895;1259;71993;-57
2024/03/26 00:49:18;;;;;;;0.80;0.40;;;;;;;4.34;100.00;99229.82;105835;1261;61785;-55
2024/03/26 00:51:45;;;;;;;1.70;0.50;;;;;;;4.36;100.00;99229.02;105849;1260;61417;-55
2024/03/26 00:54:12;;;;;;;2.30;0.70;;;;;;;4.37;100.00;99230.05;105892;1259;74687;-57
2024/03/26 00:56:41;;;;;;;2.00;0.90;;;;;;;4.37;100.00;99227.39;105912;1259;67779;-56
2024/03/26 00:59:09;;;;;;;2.50;1.30;;;;;;;4.37;100.00;99228.64;105888;1256;72461;-57
2024/03/26 01:01:36;;;;;;;3.70;1.40;;;;;;;4.34;100.00;99218.61;105831;1254;62012;-55
2024/03/26 01:04:03;;;;;;;1.00;0.50;;;;;;;4.33;100.00;99216.34;105890;1257;61210;-54
2024/03/26 01:06:30;;;;;;;0.30;0.30;;;;;;;4.30;100.00;99219.64;105868;1254;75107;-54
2024/03/26 01:08:58;;;;;;;2.00;0.60;;;;;;;4.29;100.00;99217.34;105951;1259;65571;-57
2024/03/26 01:11:25;;;;;;;3.00;0.90;;;;;;;4.29;100.00;99221.25;105832;1259;72416;-55
2024/03/26 01:13:53;;;;;;;9.70;4.50;;;;;;;4.30;100.00;99219.09;105822;1254;61507;-54
2024/03/26 01:16:20;;;;;;;8.40;3.60;;;;;;;4.31;100.00;99219.42;106447;1259;61225;-54
2024/03/26 01:18:47;;;;;;;5.90;3.10;;;;;;;4.29;100.00;99222.31;106287;1259;74740;-54
2024/03/26 01:21:14;;;;;;;5.50;3.30;;;;;;;4.27;100.00;99224.33;105965;1259;66243;-55
2024/03/26 01:23:42;;;;;;;1.70;0.80;;;;;;;4.25;100.00;99225.64;105950;1256;73444;-55
2024/03/26 01:26:09;;;;;;;0.60;0.40;;;;;;;4.24;100.00;99229.24;105900;1258;61342;-53
2024/03/26 01:28:36;;;;;;;0.70;0.50;;;;;;;4.23;100.00;99224.66;105928;1259;61304;-54
2024/03/26 01:31:03;;;;;;;0.50;0.20;;;;;;;4.22;100.00;99228.93;105884;1259;74644;-52
2024/03/26 01:33:31;;;;;;;0.60;0.30;;;;;;;4.23;100.00;99228.02;105860;1259;66066;-55
2024/03/26 01:35:58;;;;;;;0.80;0.30;;;;;;;4.23;100.00;99234.25;105908;1259;72847;-57
2024/03/26 01:38:25;;;;;;;0.30;0.20;;;;;;;4.22;100.00;99236.73;105855;1258;61318;-55
2024/03/26 01:40:52;;;;;;;1.40;0.20;;;;;;;4.23;100.00;99237.09;105933;1259;61241;-54
2024/03/26 01:43:19;;;;;;;1.20;0.40;;;;;;;4.21;100.00;99234.99;105880;1258;73444;-55
2024/03/26 01:45:47;;;;;;;0.40;0.20;;;;;;;4.17;100.00;99239.73;105956;1254;67023;-55
2024/03/26 01:48:14;;;;;;;0.50;0.30;;;;;;;4.15;100.00;99241.95;105752;1260;73170;-58
2024/03/26 01:50:41;;;;;;;0.30;0.30;;;;;;;4.14;100.00;99244.47;105793;1270;61308;-54
2024/03/26 01:53:08;;;;;;;0.50;0.50;;;;;;;4.13;100.00;99248.91;105868;1259;61878;-54
2024/03/26 01:55:35;;;;;;;1.30;0.40;;;;;;;4.14;100.00;99249.79;105916;1256;73452;-56
2024/03/26 01:58:03;;;;;;;0.70;0.40;;;;;;;4.14;100.00;99246.94;105880;1253;67235;-54
2024/03/26 02:00:30;;;;;;;0.30;0.20;;;;;;;4.15;100.00;99254.72;105822;1254;72603;-55
2024/03/26 02:02:57;;;;;;;0.30;0.30;;;;;;;4.17;100.00;99259.45;105839;1259;61257;-54
2024/03/26 02:05:25;;;;;;;0.30;0.20;;;;;;;4.17;100.00;99265.29;105818;1256;61289;-54
2024/03/26 02:07:52;;;;;;;0.60;0.40;;;;;;;4.17;100.00;99271.34;105865;1259;75080;-57
2024/03/26 02:10:19;;;;;;;0.50;0.30;;;;;;;4.17;100.00;99270.44;105923;1259;65495;-54
2024/03/26 02:12:46;;;;;;;0.30;0.20;;;;;;;4.16;100.00;99271.20;105799;1261;71773;-55
2024/03/26 02:15:14;;;;;;;1.20;0.80;;;;;;;4.13;100.00;99273.61;105841;1269;61322;-55
2024/03/26 02:17:41;;;;;;;0.40;0.20;;;;;;;4.10;100.00;99270.48;105897;1258;61305;-55
2024/03/26 02:20:09;;;;;;;0.30;0.20;;;;;;;4.09;100.00;99265.53;105812;1259;74583;-54
2024/03/26 02:22:36;;;;;;;1.10;1.00;;;;;;;4.11;100.00;99266.89;107337;1259;66332;-55
2024/03/26 02:25:03;;;;;;;1.40;1.10;;;;;;;4.11;100.00;99267.61;105844;1257;71572;-55
2024/03/26 02:27:31;;;;;;;5.80;4.50;;;;;;;4.11;100.00;99271.52;105888;1257;61382;-55
2024/03/26 02:29:58;;;;;;;2.90;1.60;;;;;;;4.12;100.00;99268.30;105817;1259;61343;-54
2024/03/26 02:32:25;;;;;;;1.40;0.90;;;;;;;4.11;100.00;99272.42;105584;1259;352519;-55
2024/03/26 02:35:58;;;;;;;0.60;0.30;;;;;;;4.09;100.00;99295.56;102596;1297;600383;-55
2024/03/26 02:38:25;;;;;;;0.20;0.20;;;;;;;4.08;100.00;99309.64;105003;1280;60950;-55
2024/03/26 02:40:52;;;;;;;0.30;0.10;;;;;;;4.09;100.00;99307.45;105047;1272;59920;-56
2024/03/26 02:43:20;;;;;;;0.20;0.10;;;;;;;4.13;100.00;99305.94;105104;1267;73076;-56
2024/03/26 02:45:47;;;;;;;0.50;0.20;;;;;;;4.16;100.00;99307.23;104963;1272;67092;-57
2024/03/26 02:48:14;;;;;;;0.40;0.10;;;;;;;4.21;100.00;99308.89;105124;1271;72746;-58
2024/03/26 02:50:41;;;;;;;0.70;0.20;;;;;;;4.21;100.00;99310.48;105488;1273;247546;-57
2024/03/26 02:53:08;;;;;;;0.30;0.20;;;;;;;4.17;100.00;99305.79;105796;1257;59708;-57
2024/03/26 02:55:36;;;;;;;0.60;0.20;;;;;;;4.13;100.00;99305.73;105704;1271;73121;-56
2024/03/26 02:58:03;;;;;;;0.20;0.10;;;;;;;4.11;100.00;99310.42;105729;1263;65984;-57
2024/03/26 03:00:31;;;;;;;0.30;0.10;;;;;;;4.08;100.00;99312.80;105679;1270;72847;-57
2024/03/26 03:02:58;;;;;;;0.10;0.10;;;;;;;4.08;100.00;99323.13;105613;1262;60383;-57
2024/03/26 03:05:25;;;;;;;0.40;0.10;;;;;;;4.10;100.00;99321.98;105648;1264;61201;-57
2024/03/26 03:07:52;;;;;;;0.30;0.10;;;;;;;4.12;100.00;99323.35;105671;1263;73952;-57
2024/03/26 03:10:20;;;;;;;0.10;0.10;;;;;;;4.14;100.00;99329.87;105644;1271;66291;-56
2024/03/26 03:12:47;;;;;;;0.70;0.00;;;;;;;4.16;100.00;99336.73;105724;1270;70773;-57
2024/03/26 03:15:14;;;;;;;0.40;0.10;;;;;;;4.17;100.00;99345.59;105663;1264;61471;-57
2024/03/26 03:17:41;;;;;;;0.10;0.10;;;;;;;4.14;100.00;99346.39;105686;1258;60840;-57
2024/03/26 03:20:13;;;;;;;0.10;0.10;;;;;;;4.12;100.00;99353.19;105629;1263;73862;-57
2024/03/26 03:22:42;;;;;;;0.50;0.10;;;;;;;4.10;100.00;99354.30;105603;1262;67410;-56
2024/03/26 03:25:09;;;;;;;0.50;0.30;;;;;;;4.09;100.00;99357.36;106386;1260;72754;-56
2024/03/26 03:27:36;;;;;;;2.30;0.10;;;;;;;4.10;100.00;99364.77;105696;1263;61468;-56
2024/03/26 03:30:05;;;;;;;0.50;0.10;;;;;;;4.12;100.00;99364.73;105495;1266;61362;-56
2024/03/26 03:32:32;;;;;;;0.20;0.10;;;;;;;4.14;100.00;99364.51;105827;1263;73640;-56
2024/03/26 03:34:59;;;;;;;0.30;0.30;;;;;;;4.14;100.00;99363.96;105757;1263;65628;-57
2024/03/26 03:37:26;;;;;;;0.30;0.10;;;;;;;4.12;100.00;99365.96;105662;1262;72852;-57
2024/03/26 03:39:54;;;;;;;0.50;0.20;;;;;;;4.11;100.00;99371.32;105680;1272;60794;-57
2024/03/26 03:42:21;;;;;;;0.20;0.10;;;;;;;4.11;100.00;99372.56;105741;1257;60321;-57
2024/03/26 03:44:48;;;;;;;0.90;0.10;;;;;;;4.10;100.00;99369.55;105670;1264;72717;-57
2024/03/26 03:47:16;;;;;;;1.00;0.20;;;;;;;4.11;100.00;99368.66;106085;1259;66960;-57
2024/03/26 03:49:43;;;;;;;0.40;0.40;;;;;;;4.13;100.00;99371.64;105645;1263;71433;-57
2024/03/26 03:52:10;;;;;;;0.40;0.10;;;;;;;4.15;100.00;99378.69;105729;1264;60676;-57
2024/03/26 03:54:37;;;;;;;0.50;0.20;;;;;;;4.16;100.00;99383.09;105769;1271;60517;-57
2024/03/26 03:57:04;;;;;;;0.30;0.10;;;;;;;4.15;100.00;99390.57;105717;1270;73889;-57
2024/03/26 03:59:32;;;;;;;0.90;0.20;;;;;;;4.14;100.00;99394.33;105697;1264;66996;-56
2024/03/26 04:01:59;;;;;;;2.10;0.20;;;;;;;4.12;100.00;99392.95;105732;1261;71459;-57
2024/03/26 04:04:26;;;;;;;1.50;0.10;;;;;;;4.11;100.00;99392.27;105791;1261;61738;-57
2024/03/26 04:06:53;;;;;;;0.70;0.20;;;;;;;4.11;100.00;99395.48;105699;1267;60742;-57
2024/03/26 04:09:21;;;;;;;0.30;0.20;;;;;;;4.12;100.00;99404.33;105755;1264;72736;-56
2024/03/26 04:11:50;;;;;;;0.30;0.20;;;;;;;4.15;100.00;99410.29;105715;1263;64824;-56
2024/03/26 04:14:19;;;;;;;1.30;0.20;;;;;;;4.18;100.00;99418.89;105942;1279;72169;-56
2024/03/26 04:16:47;;;;;;;0.40;0.10;;;;;;;4.22;100.00;99426.61;105837;1264;60379;-56
2024/03/26 04:19:14;;;;;;;1.50;0.20;;;;;;;4.22;100.00;99430.87;105809;1267;60653;-57
2024/03/26 04:21:42;;;;;;;0.30;0.20;;;;;;;4.21;100.00;99433.92;105892;1257;74618;-57
2024/03/26 04:24:09;;;;;;;0.50;0.30;;;;;;;4.18;100.00;99437.19;105743;1258;66345;-57
2024/03/26 04:26:36;;;;;;;1.40;0.20;;;;;;;4.15;100.00;99441.71;105738;1261;72688;-57
2024/03/26 04:29:03;;;;;;;4.80;0.20;;;;;;;4.15;100.00;99444.73;105721;1258;60501;-56
2024/03/26 04:31:30;;;;;;;0.40;0.20;;;;;;;4.15;100.00;99446.16;105743;1262;64024;-58
2024/03/26 04:33:57;;;;;;;0.70;0.20;;;;;;;4.18;100.00;99450.69;105784;1259;73792;-56
2024/03/26 04:36:25;;;;;;;1.90;0.20;;;;;;;4.20;100.00;99453.11;105727;1264;67166;-56
2024/03/26 04:38:53;;;;;;;6.00;0.30;;;;;;;4.22;100.00;99455.38;105857;1257;71353;-56
2024/03/26 04:41:20;;;;;;;0.50;0.30;;;;;;;4.23;100.00;99460.34;105846;1260;60504;-58
2024/03/26 04:43:48;;;;;;;1.50;0.30;;;;;;;4.20;100.00;99469.46;105784;1258;60578;-57
2024/03/26 04:46:15;;;;;;;0.50;0.20;;;;;;;4.18;100.00;99476.63;105755;1258;73893;-57
2024/03/26 04:48:42;;;;;;;2.10;0.30;;;;;;;4.16;100.00;99481.81;105771;1258;66034;-57
2024/03/26 04:51:09;;;;;;;1.70;0.30;;;;;;;4.18;100.00;99481.06;105711;1260;73166;-57
2024/03/26 04:53:37;;;;;;;1.20;0.20;;;;;;;4.20;100.00;99485.45;108752;1257;59840;-57
2024/03/26 04:56:04;;;;;;;0.80;0.30;;;;;;;4.23;100.00;99492.48;108749;1260;59336;-57
2024/03/26 04:58:31;;;;;;;0.40;0.20;;;;;;;4.25;100.00;99493.48;108816;1257;72682;-56
2024/03/26 05:00:58;;;;;;;0.50;0.30;;;;;;;4.27;100.00;99495.19;108882;1257;67051;-57
2024/03/26 05:03:25;;;;;;;2.70;0.30;;;;;;;4.27;100.00;99499.81;108848;1257;71833;-57
2024/03/26 05:05:52;;;;;;;2.10;0.30;;;;;;;4.26;100.00;99500.58;108816;1260;61114;-56
2024/03/26 05:08:20;;;;;;;0.70;0.30;;;;;;;4.25;100.00;99505.94;108894;1257;62488;-57
2024/03/26 05:10:47;;;;;;;1.10;0.30;;;;;;;4.24;100.00;99509.70;108788;1260;72611;-57
2024/03/26 05:13:14;;;;;;;0.60;0.30;;;;;;;4.24;100.00;99508.27;108887;1257;64692;-57
2024/03/26 05:15:41;;;;;;;0.50;0.30;;;;;;;4.26;100.00;99511.55;108834;1257;71660;-57
2024/03/26 05:18:08;;;;;;;0.50;0.30;;;;;;;4.27;100.00;99516.15;108796;1257;58304;-57
2024/03/26 05:20:36;;;;;;;0.70;0.20;;;;;;;4.29;100.00;99521.61;106361;1262;60443;-57
2024/03/26 05:23:03;;;;;;;0.60;0.30;;;;;;;4.33;100.00;99523.48;105719;1267;73794;-57
2024/03/26 05:25:30;;;;;;;2.40;0.40;;;;;;;4.36;100.00;99528.71;105743;1257;65921;-57
2024/03/26 05:27:58;;;;;;;0.70;0.40;;;;;;;4.33;100.00;99528.61;105856;1263;73381;-57
2024/03/26 05:30:25;;;;;;;1.60;0.30;;;;;;;4.27;100.00;99529.83;105770;1263;61259;-57
2024/03/26 05:32:52;;;;;;;0.60;0.30;;;;;;;4.22;100.00;99534.06;105700;1258;61373;-58
2024/03/26 05:35:19;;;;;;;0.40;0.30;;;;;;;4.19;100.00;99532.72;105785;1261;73996;-57
2024/03/26 05:37:47;;;;;;;2.80;0.40;;;;;;;4.17;100.00;99535.77;105793;1261;64682;-58
2024/03/26 05:40:14;;;;;;;1.80;0.40;;;;;;;4.19;100.00;99535.73;105757;1266;72763;-57
2024/03/26 05:42:42;;;;;;;1.50;0.40;;;;;;;4.21;100.00;99538.34;105939;1260;60493;-57
2024/03/26 05:45:09;;;;;;;0.90;0.40;;;;;;;4.24;100.00;99540.94;105737;1264;60599;-56
2024/03/26 05:47:36;;;;;;;2.40;0.60;;;;;;;4.27;100.00;99540.31;105795;1261;74413;-57
2024/03/26 05:50:06;;;;;;;0.80;0.40;;;;;;;4.29;100.00;99546.48;105757;1257;66802;-57
2024/03/26 05:52:33;;;;;;;0.60;0.40;;;;;;;4.29;100.00;99545.25;106147;1261;71089;-57
2024/03/26 05:55:00;;;;;;;0.50;0.30;;;;;;;4.26;100.00;99548.33;105806;1258;61652;-57
2024/03/26 05:57:28;;;;;;;1.00;0.30;;;;;;;4.25;100.00;99547.83;105814;1273;60549;-57
2024/03/26 05:59:55;;;;;;;0.90;0.40;;;;;;;4.27;100.00;99551.50;105754;1263;73948;-57
2024/03/26 06:02:22;;;;;;;1.40;0.40;;;;;;;4.32;100.00;99555.66;105785;1264;67656;-57
2024/03/26 06:04:49;;;;;;;2.10;0.30;;;;;;;4.38;100.00;99557.80;105756;1260;72694;-57
2024/03/26 06:07:17;;;;;;;1.60;0.40;;;;;;;4.43;100.00;99561.02;105977;1260;60290;-57
2024/03/26 06:09:44;;;;;;;0.40;0.30;;;;;;;4.45;100.00;99563.45;105680;1263;61528;-57
2024/03/26 06:12:11;;;;;;;0.60;0.40;;;;;;;4.48;100.00;99568.73;105698;1261;73949;-56
2024/03/26 06:14:39;;;;;;;2.70;0.40;;;;;;;4.51;100.00;99568.45;105743;1260;67050;-57
2024/03/26 06:17:06;;;;;;;1.70;0.60;;;;;;;4.55;100.00;99569.43;105588;1264;72736;-56
2024/03/26 06:19:33;;;;;;;1.50;0.50;;;;;;;4.55;100.00;99575.98;105726;1258;60785;-57
2024/03/26 06:22:01;;;;;;;0.80;0.50;;;;;;;4.56;100.00;99578.10;105713;1257;60464;-58
2024/03/26 06:24:28;;;;;;;0.90;0.40;;;;;;;4.60;100.00;99580.31;105787;1264;73838;-56
2024/03/26 06:26:55;;;;;;;2.90;0.40;;;;;;;4.66;100.00;99579.60;105839;1262;65779;-56
2024/03/26 06:29:22;;;;;;;3.90;0.50;;;;;;;4.74;100.00;99584.02;105780;1271;72842;-57
2024/03/26 06:31:50;;;;;;;1.20;0.50;;;;;;;4.82;100.00;99586.28;105738;1263;60569;-57
2024/03/26 06:34:17;;;;;;;1.00;0.40;;;;;;;4.90;100.00;99580.37;105756;1258;61445;-57
2024/03/26 06:36:44;;;;;;;0.50;0.30;;;;;;;4.95;100.00;99581.99;105888;1260;73814;-55
2024/03/26 06:39:17;;;;;;;1.30;0.30;;;;;;;4.98;100.00;99587.08;105841;1257;67115;-58
2024/03/26 06:41:45;;;;;;;1.00;0.30;;;;;;;5.01;100.00;99586.45;105787;1257;72740;-58
2024/03/26 06:44:12;;;;;;;1.00;0.30;;;;;;;5.06;100.00;99585.59;105734;1258;62101;-57
2024/03/26 06:46:40;;;;;;;0.60;0.30;;;;;;;5.11;100.00;99594.17;105752;1258;61915;-57
2024/03/26 06:49:08;;;;;;;1.10;0.30;;;;;;;5.17;100.00;99595.95;106375;1263;74711;-56
2024/03/26 06:51:36;;;;;;;2.20;0.40;;;;;;;5.24;100.00;99596.98;105838;1271;68943;-57
2024/03/26 06:54:03;;;;;;;1.60;0.40;;;;;;;5.31;100.00;99601.59;105808;1261;74928;-57
2024/03/26 06:56:31;;;;;;;1.40;0.40;;;;;;;5.36;100.00;99604.47;105873;1257;62094;-57
2024/03/26 06:58:59;;;;;;;2.00;0.50;;;;;;;5.39;100.00;99607.58;105836;1261;62296;-57
2024/03/26 07:01:27;;;;;;;2.50;0.40;;;;;;;5.41;100.00;99608.08;105799;1271;73451;-57
2024/03/26 07:03:54;;;;;;;3.40;0.40;;;;;;;5.41;100.00;99612.32;105743;1264;66426;-56
2024/03/26 07:06:21;;;;;;;1.00;0.30;;;;;;;5.44;100.00;99610.30;105739;1258;71986;-56
2024/03/26 07:08:49;;;;;;;1.80;0.50;;;;;;;5.46;100.00;99616.63;105840;1267;62101;-57
2024/03/26 07:11:16;;;;;;;1.20;0.50;;;;;;;5.52;100.00;99624.12;105925;1260;61246;-57
2024/03/26 07:13:43;;;;;;;2.00;0.40;;;;;;;5.58;100.00;99624.11;105867;1263;73438;-57
2024/03/26 07:16:10;;;;;;;0.70;0.50;;;;;;;5.64;100.00;99629.95;106059;1253;65896;-58
2024/03/26 07:18:38;;;;;;;0.80;0.50;;;;;;;5.70;100.00;99633.14;106059;1256;72703;-57
2024/03/26 07:21:05;;;;;;;2.60;0.40;;;;;;;5.75;100.00;99638.72;105940;1251;62097;-57
2024/03/26 07:23:32;;;;;;;1.30;0.30;;;;;;;5.76;100.00;99638.52;106045;1257;61282;-58
2024/03/26 07:25:59;;;;;;;2.70;0.40;;;;;;;5.78;100.00;99638.43;106062;1257;74725;-58
2024/03/26 07:28:26;;;;;;;0.50;0.30;;;;;;;5.79;100.00;99641.62;106056;1257;65705;-58
2024/03/26 07:30:54;;;;;;;1.10;0.30;;;;;;;5.82;100.00;99649.88;106034;1254;75476;-57
2024/03/26 07:33:22;;;;;;;1.70;0.40;;;;;;;5.89;100.00;99648.65;109153;1251;59347;-56
2024/03/26 07:35:49;;;;;;;0.60;0.40;;;;;;;5.96;100.00;99655.00;109118;1253;60264;-55
2024/03/26 07:38:16;;;;;;;1.00;0.30;;;;;;;6.05;100.00;99654.91;109240;1253;75574;-58
2024/03/26 07:40:44;;;;;;;0.60;0.30;;;;;;;6.12;100.00;99653.27;109095;1253;66903;-56
2024/03/26 07:43:11;;;;;;;2.30;0.50;;;;;;;6.19;100.00;99656.79;109173;1252;72164;-56
2024/03/26 07:45:49;;;;;;;0.70;0.40;;;;;;;6.25;100.00;99656.75;109118;1253;59788;-56
2024/03/26 07:48:16;;;;;;;1.50;0.40;;;;;;;6.29;100.00;99665.00;109263;1251;60712;-56
2024/03/26 07:50:44;;;;;;;0.80;0.30;;;;;;;6.31;100.00;99665.46;109155;1251;74441;-56
2024/03/26 07:53:11;;;;;;;1.20;0.30;;;;;;;6.29;100.00;99664.48;109191;1253;66931;-56
2024/03/26 07:55:38;;;;;;;0.90;0.30;;;;;;;6.25;100.00;99667.27;109168;1253;71522;-56
2024/03/26 07:58:05;;;;;;;0.50;0.30;;;;;;;6.23;100.00;99669.48;109153;1253;58993;-56
2024/03/26 08:00:33;;;;;;;0.60;0.30;;;;;;;6.22;100.00;99670.39;109256;1253;60549;-57
2024/03/26 08:03:00;;;;;;;0.70;0.30;;;;;;;6.25;100.00;99672.27;109185;1253;74717;-57
2024/03/26 08:05:28;;;;;;;0.70;0.30;;;;;;;6.31;100.00;99676.50;109121;1253;69196;-57
2024/03/26 08:07:55;;;;;;;1.70;0.30;;;;;;;6.37;100.00;99682.23;109153;1253;71469;-57
2024/03/26 08:10:22;;;;;;;2.60;0.60;;;;;;;6.42;100.00;99682.56;109102;1253;60196;-58
2024/03/26 08:12:49;;;;;;;1.00;0.50;;;;;;;6.47;100.00;99687.75;109059;1253;59166;-57
2024/03/26 08:15:17;;;;;;;0.70;0.40;;;;;;;6.55;100.00;99683.23;109171;1252;74753;-57
2024/03/26 08:17:45;;;;;;;1.50;0.30;;;;;;;6.64;100.00;99689.70;109289;1253;67092;-57
2024/03/26 08:20:13;;;;;;;0.50;0.30;;;;;;;6.70;100.00;99686.45;107978;1253;75129;-57
2024/03/26 08:22:40;;;;;;;0.70;0.40;;;;;;;6.79;100.00;99688.48;106004;1258;62099;-59
2024/03/26 08:25:09;;;;;;;0.60;0.30;;;;;;;6.86;100.00;99690.55;106047;1252;61301;-55
2024/03/26 08:27:36;;;;;;;0.50;0.20;;;;;;;6.91;100.00;99692.70;106045;1254;74760;-57
2024/03/26 08:30:04;;;;;;;0.30;0.20;;;;;;;6.95;100.00;99690.77;106093;1254;65814;-57
2024/03/26 08:32:35;;;;;;;0.50;0.30;;;;;;;6.99;100.00;99691.88;106272;1254;73099;-57
2024/03/26 08:35:02;;;;;;;1.10;0.30;;;;;;;7.04;100.00;99696.88;106507;1254;61221;-57
2024/03/26 08:37:29;;;;;;;1.20;0.30;;;;;;;7.12;100.00;99693.41;105935;1257;61426;-58
2024/03/26 08:39:57;;;;;;;0.30;0.20;;;;;;;7.22;100.00;99698.93;106030;1253;74747;-57
2024/03/26 08:42:24;;;;;;;1.30;0.40;;;;;;;7.30;100.00;99699.89;106038;1256;65867;-57
2024/03/26 08:44:51;;;;;;;1.80;0.40;;;;;;;7.37;100.00;99690.38;106040;1266;71969;-57
2024/03/26 08:47:18;;;;;;;2.70;0.40;;;;;;;7.39;100.00;99693.12;106339;1256;61199;-57
2024/03/26 08:49:46;;;;;;;0.50;0.30;;;;;;;7.42;100.00;99692.64;106080;1253;61286;-56
2024/03/26 08:52:13;;;;;;;0.80;0.30;;;;;;;7.46;100.00;99698.96;106106;1257;74754;-57
2024/03/26 08:54:40;;;;;;;1.50;0.40;;;;;;;7.46;100.00;99700.57;106039;1272;66224;-57
2024/03/26 08:57:07;;;;;;;1.60;0.30;;;;;;;7.45;100.00;99704.16;106028;1254;72877;-57
2024/03/26 08:59:37;;;;;;;1.30;0.20;;;;;;;7.42;100.00;99699.44;105951;1258;61638;-59
2024/03/26 09:02:04;;;;;;;0.40;0.20;;;;;;;7.43;100.00;99699.05;106002;1256;61368;-56
2024/03/26 09:04:32;;;;;;;0.50;0.30;;;;;;;7.48;100.00;99697.98;106047;1256;73988;-57
2024/03/26 09:06:59;;;;;;;0.70;0.20;;;;;;;7.54;100.00;99699.92;106066;1269;66706;-56
2024/03/26 09:09:27;;;;;;;1.50;0.20;;;;;;;7.60;100.00;99704.48;105966;1253;72995;-57
2024/03/26 09:11:54;;;;;;;1.20;0.20;;;;;;;7.65;100.00;99702.55;105987;1256;61250;-57
2024/03/26 09:14:22;;;;;;;0.90;0.30;;;;;;;7.71;100.00;99702.86;105981;1253;62034;-57
2024/03/26 09:16:49;;;;;;;0.90;0.30;;;;;;;7.78;100.00;99705.42;106088;1253;76679;-57
2024/03/26 09:19:16;;;;;;;0.30;0.30;;;;;;;7.85;100.00;99706.96;106014;1258;69149;-57
2024/03/26 09:21:43;;;;;;;2.90;0.40;;;;;;;7.91;100.00;99704.41;105998;1256;72706;-56
2024/03/26 09:24:10;;;;;;;1.40;0.30;;;;;;;7.95;100.00;99701.55;105981;1257;61308;-56
2024/03/26 09:26:38;;;;;;;0.30;0.20;;;;;;;7.96;100.00;99699.71;106072;1257;61611;-58
2024/03/26 09:29:06;;;;;;;1.30;0.40;;;;;;;8.03;100.00;99700.35;106065;1256;73397;-58
2024/03/26 09:31:33;;;;;;;0.60;0.30;;;;;;;8.11;100.00;99697.73;106180;1251;68151;-58
2024/03/26 09:34:00;;;;;;;0.60;0.30;;;;;;;8.14;100.00;99705.30;106148;1256;74144;-58
2024/03/26 09:36:27;;;;;;;2.30;0.20;;;;;;;8.17;100.00;99706.08;106165;1259;60036;-58
2024/03/26 09:38:54;;;;;;;0.50;0.30;;;;;;;8.24;100.00;99706.14;106139;1254;62285;-58
2024/03/26 09:41:33;;;;;;;1.30;0.30;;;;;;;8.33;100.00;99715.83;106057;1254;73580;-57
2024/03/26 09:44:00;;;;;;;0.70;0.60;;;;;;;8.36;100.00;99714.45;105988;1264;66019;-57
2024/03/26 09:46:29;;;;;;;0.70;0.20;;;;;;;8.33;100.00;99715.50;106107;1252;72697;-55
2024/03/26 09:48:58;;;;;;;1.30;0.20;;;;;;;8.33;100.00;99719.77;105989;1254;61362;-59
2024/03/26 09:51:26;;;;;;;0.40;0.20;;;;;;;8.33;100.00;99717.29;106338;1257;61293;-58
2024/03/26 09:53:54;;;;;;;1.60;0.30;;;;;;;8.34;100.00;99719.52;107829;1254;75652;-57
2024/03/26 09:56:22;;;;;;;1.10;0.20;;;;;;;8.38;100.00;99719.59;106217;1258;65846;-57
2024/03/26 09:58:49;;;;;;;2.80;0.40;;;;;;;8.44;100.00;99728.64;106799;1254;72043;-57
2024/03/26 10:01:17;;;;;;;1.40;0.20;;;;;;;8.48;100.00;99729.38;106233;1256;61436;-58
2024/03/26 10:03:44;;;;;;;1.60;0.20;;;;;;;8.49;100.00;99729.30;106131;1252;61202;-57
2024/03/26 10:06:12;;;;;;;0.30;0.20;;;;;;;8.54;100.00;99730.73;106535;1257;75158;-57
2024/03/26 10:08:39;;;;;;;1.10;0.40;;;;;;;8.57;100.00;99733.64;106132;1254;65647;-57
2024/03/26 10:11:06;;;;;;;0.90;0.40;;;;;;;8.56;100.00;99731.90;106051;1258;75032;-58
2024/03/26 10:13:33;;;;;;;0.90;0.30;;;;;;;8.54;100.00;99730.20;105928;1260;61311;-55
2024/03/26 10:16:01;;;;;;;0.40;0.20;;;;;;;8.57;100.00;99732.41;106180;1256;62107;-57
2024/03/26 10:18:28;;;;;;;0.30;0.20;;;;;;;8.63;100.00;99734.29;106198;1257;74724;-57
2024/03/26 10:20:56;;;;;;;0.40;0.20;;;;;;;8.74;100.00;99733.81;106002;1259;65815;-57
2024/03/26 10:23:23;;;;;;;1.70;0.60;;;;;;;8.86;100.00;99737.63;106108;1254;73675;-57
2024/03/26 10:25:50;;;;;;;0.60;0.20;;;;;;;8.96;100.00;99742.21;106150;1256;61287;-57
2024/03/26 10:28:17;;;;;;;0.80;0.30;;;;;;;9.02;100.00;99741.95;106169;1256;61347;-58
2024/03/26 10:30:44;;;;;;;1.00;0.50;;;;;;;9.04;100.00;99744.21;106216;1254;74744;-58
2024/03/26 10:33:11;;;;;;;0.40;0.20;;;;;;;9.07;100.00;99749.80;105992;1256;65200;-58
2024/03/26 10:35:39;;;;;;;0.90;0.40;;;;;;;9.12;100.00;99746.91;105942;1261;72537;-57
2024/03/26 10:38:07;;;;;;;1.40;0.10;;;;;;;9.19;100.00;99748.59;105991;1260;60455;-58
2024/03/26 10:40:53;;;;;;;0.80;0.20;;;;;;;9.26;100.00;99750.30;108803;1252;59309;-58
2024/03/26 10:43:25;;;;;;;0.20;0.20;;;;;;;9.27;100.00;99750.05;109171;1253;72411;-57
2024/03/26 10:45:53;;;;;;;0.80;0.20;;;;;;;9.28;100.00;99751.94;109148;1253;65764;-59
2024/03/26 10:48:33;;;;;;;1.00;0.20;;;;;;;9.32;100.00;99747.51;109122;1253;74966;-57
2024/03/26 10:51:05;;;;;;;0.30;0.20;;;;;;;9.37;100.00;99749.77;108096;1256;62663;-57
2024/03/26 10:53:32;;;;;;;1.20;0.20;;;;;;;9.43;100.00;99751.50;106021;1254;61211;-55
2024/03/26 10:55:59;;;;;;;0.20;0.10;;;;;;;9.46;100.00;99756.90;106008;1257;73436;-58
2024/03/26 10:58:27;;;;;;;0.40;0.30;;;;;;;9.48;100.00;99761.11;106021;1257;66268;-55
2024/03/26 11:00:54;;;;;;;0.50;0.20;;;;;;;9.46;100.00;99762.27;106171;1254;72624;-58
2024/03/26 11:03:21;;;;;;;0.70;0.30;;;;;;;9.41;100.00;99759.98;105948;1253;61668;-55
2024/03/26 11:05:49;;;;;;;0.80;0.20;;;;;;;9.38;100.00;99759.75;106002;1254;62020;-56
2024/03/26 11:08:19;;;;;;;0.30;0.20;;;;;;;9.40;100.00;99760.55;105884;1260;72447;-56
2024/03/26 11:11:08;;;;;;;1.60;0.20;;;;;;;9.45;100.00;99760.55;105996;1257;68196;-57
2024/03/26 11:13:36;;;;;;;0.60;0.30;;;;;;;9.50;100.00;99763.17;106055;1254;73470;-56
2024/03/26 11:16:07;;;;;;;0.60;0.30;;;;;;;9.55;100.00;99768.14;109299;1253;61490;-56
2024/03/26 11:18:38;;;;;;;0.50;0.20;;;;;;;9.53;100.00;99767.73;109159;1252;60190;-58
2024/03/26 11:21:06;;;;;;;0.40;0.20;;;;;;;9.51;100.00;99764.06;109250;1251;73506;-56
2024/03/26 11:23:36;;;;;;;0.80;0.20;;;;;;;9.52;100.00;99775.98;109097;1254;67769;-57
2024/03/26 11:26:04;;;;;;;1.70;0.20;;;;;;;9.54;100.00;99773.04;107724;1253;72793;-56